Time;durP1;ratioP1;P1;durP2;ratioP2;P2;SDS_P1;SDS_P2;PMS_P1;PMS_P2;Temp;Humidity;BMP_temperature;BMP_pressure;BME280_temperature;BME280_humidity;BME280_pressure;Samples;Min_cycle;Max_cycle;Signal;HPM_P1;HPM_P2
2022/03/02 00:02:24;;;;;;;31.87;15.90;;;;;;;;;;5019354;28;20226;-67
2022/03/02 00:04:50;;;;;;;29.10;14.93;;;;;;;;;;5026035;28;20193;-67
2022/03/02 00:07:15;;;;;;;31.73;16.70;;;;;;;;;;5025896;28;20234;-67
2022/03/02 00:09:41;;;;;;;30.30;15.97;;;;;;;;;;5028202;28;20181;-66
2022/03/02 00:12:06;;;;;;;29.13;15.67;;;;;;;;;;5016227;28;20293;-67
2022/03/02 00:14:32;;;;;;;30.77;15.90;;;;;;;;;;5026021;28;20182;-67
2022/03/02 00:16:57;;;;;;;29.17;15.93;;;;;;;;;;5026252;28;20201;-66
2022/03/02 00:19:23;;;;;;;29.30;15.80;;;;;;;;;;5025593;28;20221;-66
2022/03/02 00:21:49;;;;;;;29.77;16.10;;;;;;;;;;5030882;28;20201;-67
2022/03/02 00:24:14;;;;;;;30.80;16.37;;;;;;;;;;5024506;28;20608;-67
2022/03/02 00:26:39;;;;;;;29.20;15.97;;;;;;;;;;5027897;28;20190;-67
2022/03/02 00:29:05;;;;;;;29.77;16.23;;;;;;;;;;5025021;28;20186;-67
2022/03/02 00:31:31;;;;;;;30.07;15.57;;;;;;;;;;5025420;28;20213;-67
2022/03/02 00:33:57;;;;;;;29.27;16.07;;;;;;;;;;5022082;28;20214;-67
2022/03/02 00:36:22;;;;;;;27.60;15.60;;;;;;;;;;5026489;28;20327;-67
2022/03/02 00:38:48;;;;;;;30.43;16.23;;;;;;;;;;5024016;28;20279;-67
2022/03/02 00:41:14;;;;;;;33.13;16.40;;;;;;;;;;5025641;28;20236;-67
2022/03/02 00:43:39;;;;;;;29.93;15.20;;;;;;;;;;5025952;28;20565;-67
2022/03/02 00:46:04;;;;;;;28.20;15.73;;;;;;;;;;5022519;28;20557;-66
2022/03/02 00:48:30;;;;;;;29.60;16.30;;;;;;;;;;5026340;28;20631;-67
2022/03/02 00:50:55;;;;;;;28.73;15.43;;;;;;;;;;5025913;28;20196;-67
2022/03/02 00:53:21;;;;;;;27.67;15.57;;;;;;;;;;5019480;28;20241;-67
2022/03/02 00:55:46;;;;;;;28.17;15.33;;;;;;;;;;5021873;28;20253;-68
2022/03/02 00:58:12;;;;;;;30.70;16.13;;;;;;;;;;5022033;28;20190;-67
2022/03/02 01:00:37;;;;;;;28.90;16.17;;;;;;;;;;5018370;28;20179;-67
2022/03/02 01:03:03;;;;;;;30.73;15.67;;;;;;;;;;5023672;28;20227;-67
2022/03/02 01:05:29;;;;;;;27.93;15.53;;;;;;;;;;5027733;28;20214;-66
2022/03/02 01:07:54;;;;;;;28.97;16.00;;;;;;;;;;5023254;28;20187;-67
2022/03/02 01:10:20;;;;;;;31.07;15.97;;;;;;;;;;5029403;28;20244;-66
2022/03/02 01:12:45;;;;;;;29.60;14.53;;;;;;;;;;5025482;28;20237;-67
2022/03/02 01:15:12;;;;;;;30.30;15.63;;;;;;;;;;5019236;28;20183;-67
2022/03/02 01:17:38;;;;;;;30.33;15.47;;;;;;;;;;5021431;28;20178;-73
2022/03/02 01:20:06;;;;;;;27.77;14.50;;;;;;;;;;5020325;28;20179;-67
2022/03/02 01:22:31;;;;;;;27.10;15.07;;;;;;;;;;5022415;28;20189;-67
2022/03/02 01:24:56;;;;;;;31.13;15.43;;;;;;;;;;5016674;28;20195;-66
2022/03/02 01:27:22;;;;;;;31.20;16.10;;;;;;;;;;5022297;28;20210;-66
2022/03/02 01:29:48;;;;;;;29.10;16.27;;;;;;;;;;5023090;28;20655;-67
2022/03/02 01:32:13;;;;;;;36.47;17.17;;;;;;;;;;5022893;28;20300;-66
2022/03/02 01:34:38;;;;;;;31.50;16.07;;;;;;;;;;5023333;28;20319;-66
2022/03/02 01:37:04;;;;;;;26.40;15.03;;;;;;;;;;5020511;28;20190;-67
2022/03/02 01:39:29;;;;;;;31.17;15.80;;;;;;;;;;5021424;28;20752;-66
2022/03/02 01:41:55;;;;;;;29.53;16.03;;;;;;;;;;5025735;28;20182;-67
2022/03/02 01:44:20;;;;;;;29.33;16.33;;;;;;;;;;5030230;28;20234;-66
2022/03/02 01:46:46;;;;;;;31.67;16.33;;;;;;;;;;5026921;28;20209;-67
2022/03/02 01:49:12;;;;;;;34.57;17.73;;;;;;;;;;5023259;28;20298;-67
2022/03/02 01:51:38;;;;;;;31.37;16.40;;;;;;;;;;5025976;28;20247;-67
2022/03/02 01:54:04;;;;;;;32.03;16.37;;;;;;;;;;5025795;28;20222;-67
2022/03/02 01:56:31;;;;;;;29.50;16.30;;;;;;;;;;5025484;28;20197;-67
2022/03/02 01:58:56;;;;;;;31.73;16.10;;;;;;;;;;5024664;28;20197;-66
2022/03/02 02:01:22;;;;;;;30.17;15.63;;;;;;;;;;5025208;28;20234;-67
2022/03/02 02:03:49;;;;;;;32.07;15.90;;;;;;;;;;5024672;28;20200;-67
2022/03/02 02:06:14;;;;;;;29.63;16.80;;;;;;;;;;5022673;28;20186;-67
2022/03/02 02:08:41;;;;;;;33.00;16.13;;;;;;;;;;5024373;28;20197;-71
2022/03/02 02:11:09;;;;;;;35.90;16.37;;;;;;;;;;5020631;28;20435;-66
2022/03/02 02:13:34;;;;;;;30.90;16.00;;;;;;;;;;5019718;28;20271;-67
2022/03/02 02:16:04;;;;;;;31.23;16.40;;;;;;;;;;5022848;28;20654;-67
2022/03/02 02:18:29;;;;;;;31.23;15.77;;;;;;;;;;5020918;28;20197;-67
2022/03/02 02:20:55;;;;;;;32.40;16.57;;;;;;;;;;5021855;28;20557;-67
2022/03/02 02:23:20;;;;;;;28.50;15.57;;;;;;;;;;5023095;28;20717;-67
2022/03/02 02:25:46;;;;;;;31.53;16.47;;;;;;;;;;5023322;28;20194;-66
2022/03/02 02:28:13;;;;;;;31.13;16.40;;;;;;;;;;5023386;28;20200;-67
2022/03/02 02:30:40;;;;;;;32.23;16.50;;;;;;;;;;5020623;28;20202;-66
2022/03/02 02:33:05;;;;;;;29.63;16.20;;;;;;;;;;5023064;28;20255;-66
2022/03/02 02:35:31;;;;;;;34.70;17.23;;;;;;;;;;5026459;28;20220;-66
2022/03/02 02:37:59;;;;;;;31.50;16.57;;;;;;;;;;5023160;28;20697;-67
2022/03/02 02:40:27;;;;;;;29.67;16.37;;;;;;;;;;5026349;28;20654;-67
2022/03/02 02:42:53;;;;;;;28.37;16.27;;;;;;;;;;5021903;28;20232;-67
2022/03/02 02:45:21;;;;;;;29.90;16.27;;;;;;;;;;5024027;28;20696;-67
2022/03/02 02:47:49;;;;;;;33.83;17.83;;;;;;;;;;5020261;28;20206;-66
2022/03/02 02:50:20;;;;;;;35.70;16.33;;;;;;;;;;5013944;28;20191;-67
2022/03/02 02:52:47;;;;;;;32.10;16.33;;;;;;;;;;5027210;28;20259;-66
2022/03/02 02:55:13;;;;;;;32.10;15.83;;;;;;;;;;5033328;28;20194;-66
2022/03/02 02:57:39;;;;;;;30.67;16.60;;;;;;;;;;5026742;28;20660;-66
2022/03/02 03:00:08;;;;;;;39.10;18.27;;;;;;;;;;5024915;28;20183;-67
2022/03/02 03:02:34;;;;;;;30.17;16.20;;;;;;;;;;5025971;28;20591;-66
2022/03/02 03:04:59;;;;;;;31.27;16.10;;;;;;;;;;5024574;28;20190;-67
2022/03/02 03:07:25;;;;;;;32.13;16.83;;;;;;;;;;5025722;28;20205;-66
2022/03/02 03:09:51;;;;;;;31.67;16.00;;;;;;;;;;5033367;28;20187;-66
2022/03/02 03:12:17;;;;;;;36.97;17.97;;;;;;;;;;5024730;28;20432;-66
2022/03/02 03:14:42;;;;;;;33.70;17.30;;;;;;;;;;5030209;28;20186;-67
2022/03/02 03:17:08;;;;;;;33.27;16.93;;;;;;;;;;5024997;28;20186;-66
2022/03/02 03:19:33;;;;;;;32.43;16.60;;;;;;;;;;5026017;28;20187;-66
2022/03/02 03:22:06;;;;;;;32.00;16.70;;;;;;;;;;5023197;28;20197;-66
2022/03/02 03:24:33;;;;;;;37.17;18.20;;;;;;;;;;5024786;28;20904;-66
2022/03/02 03:26:59;;;;;;;31.67;16.43;;;;;;;;;;5028423;28;20316;-66
2022/03/02 03:29:24;;;;;;;29.33;16.07;;;;;;;;;;5027281;28;20324;-66
2022/03/02 03:31:49;;;;;;;31.57;15.97;;;;;;;;;;5025427;28;20206;-65
2022/03/02 03:34:15;;;;;;;32.93;16.20;;;;;;;;;;5026272;28;20201;-67
2022/03/02 03:36:41;;;;;;;31.87;16.20;;;;;;;;;;5025214;28;20189;-67
2022/03/02 03:39:07;;;;;;;29.93;16.30;;;;;;;;;;5028162;28;20304;-66
2022/03/02 03:41:32;;;;;;;34.80;17.00;;;;;;;;;;5026500;28;20272;-66
2022/03/02 03:43:57;;;;;;;34.63;16.97;;;;;;;;;;5024865;28;20314;-66
2022/03/02 03:46:23;;;;;;;30.53;16.30;;;;;;;;;;5027646;28;20213;-67
2022/03/02 03:48:49;;;;;;;34.50;17.17;;;;;;;;;;5028243;28;20421;-67
2022/03/02 03:51:15;;;;;;;32.00;18.00;;;;;;;;;;5023370;28;20193;-66
2022/03/02 03:53:40;;;;;;;36.37;17.97;;;;;;;;;;5028974;28;20210;-66
2022/03/02 03:56:05;;;;;;;33.47;17.53;;;;;;;;;;5032762;28;20269;-67
2022/03/02 03:58:31;;;;;;;32.57;17.47;;;;;;;;;;5024946;28;20556;-66
2022/03/02 04:00:58;;;;;;;33.00;17.97;;;;;;;;;;5028060;28;20201;-67
2022/03/02 04:03:24;;;;;;;29.97;16.70;;;;;;;;;;5024359;28;20626;-66
2022/03/02 04:05:49;;;;;;;34.00;16.67;;;;;;;;;;5030192;28;20190;-66
2022/03/02 04:08:15;;;;;;;36.27;18.07;;;;;;;;;;5031202;28;20187;-66
2022/03/02 04:10:40;;;;;;;30.47;16.40;;;;;;;;;;5027395;28;20190;-67
2022/03/02 04:13:06;;;;;;;31.67;16.67;;;;;;;;;;5028744;28;20304;-66
2022/03/02 04:15:32;;;;;;;30.40;16.37;;;;;;;;;;5028703;28;20202;-66
2022/03/02 04:17:57;;;;;;;30.93;17.10;;;;;;;;;;5025790;28;20193;-66
2022/03/02 04:20:23;;;;;;;30.10;16.00;;;;;;;;;;5024405;28;20528;-66
2022/03/02 04:22:48;;;;;;;32.70;17.57;;;;;;;;;;5021039;28;20638;-66
2022/03/02 04:25:14;;;;;;;32.27;17.50;;;;;;;;;;5024250;28;20610;-67
2022/03/02 04:27:40;;;;;;;32.87;17.27;;;;;;;;;;5023976;28;20206;-66
2022/03/02 04:30:06;;;;;;;35.00;18.17;;;;;;;;;;5028170;28;20190;-67
2022/03/02 04:32:32;;;;;;;32.83;18.07;;;;;;;;;;5025294;28;20210;-67
2022/03/02 04:34:57;;;;;;;33.60;17.63;;;;;;;;;;5025342;28;20669;-66
2022/03/02 04:37:23;;;;;;;32.13;17.47;;;;;;;;;;5023467;28;20186;-67
2022/03/02 04:39:48;;;;;;;29.47;17.30;;;;;;;;;;5031160;28;20618;-67
2022/03/02 04:42:14;;;;;;;32.47;17.73;;;;;;;;;;5025611;28;20177;-66
2022/03/02 04:44:39;;;;;;;35.33;17.60;;;;;;;;;;5023007;28;21622;-67
2022/03/02 04:47:05;;;;;;;30.30;16.73;;;;;;;;;;5025993;28;20609;-67
2022/03/02 04:49:30;;;;;;;31.97;17.07;;;;;;;;;;5027606;28;20182;-66
2022/03/02 04:51:55;;;;;;;33.23;17.60;;;;;;;;;;5028642;28;20190;-67
2022/03/02 04:57:06;;;;;;;34.53;17.70;;;;;;;;;;5025066;28;20209;-66
2022/03/02 04:59:33;;;;;;;36.77;18.83;;;;;;;;;;5026940;28;20231;-66
2022/03/02 05:01:59;;;;;;;35.10;18.03;;;;;;;;;;5023914;28;20226;-67
2022/03/02 05:04:24;;;;;;;34.07;17.80;;;;;;;;;;5024141;28;20193;-67
2022/03/02 05:06:50;;;;;;;37.47;17.57;;;;;;;;;;5020909;28;20191;-67
2022/03/02 05:09:15;;;;;;;34.27;17.40;;;;;;;;;;5034557;28;20673;-66
2022/03/02 05:11:41;;;;;;;35.43;18.47;;;;;;;;;;5022922;28;20694;-66
2022/03/02 05:14:06;;;;;;;36.27;17.77;;;;;;;;;;5023527;28;20285;-67
2022/03/02 05:16:32;;;;;;;32.57;17.13;;;;;;;;;;5022249;28;20277;-67
2022/03/02 05:18:57;;;;;;;35.17;18.30;;;;;;;;;;5035354;28;20579;-67
2022/03/02 05:21:22;;;;;;;33.27;17.27;;;;;;;;;;5021629;28;20531;-67
2022/03/02 05:23:48;;;;;;;34.60;17.70;;;;;;;;;;5018107;28;20221;-67
2022/03/02 05:26:13;;;;;;;36.93;17.20;;;;;;;;;;5019972;28;20751;-67
2022/03/02 05:28:38;;;;;;;36.50;17.73;;;;;;;;;;5025988;28;20729;-67
2022/03/02 05:31:04;;;;;;;33.87;17.17;;;;;;;;;;5020137;28;20289;-67
2022/03/02 05:33:29;;;;;;;36.17;17.47;;;;;;;;;;5024986;28;20677;-67
2022/03/02 05:35:54;;;;;;;33.23;18.07;;;;;;;;;;5024134;28;20190;-67
2022/03/02 05:38:20;;;;;;;31.33;17.93;;;;;;;;;;5022996;28;20545;-67
2022/03/02 05:40:45;;;;;;;31.07;16.47;;;;;;;;;;5024207;28;20656;-66
2022/03/02 05:43:11;;;;;;;28.93;16.67;;;;;;;;;;5022874;28;20186;-67
2022/03/02 05:45:37;;;;;;;36.97;17.67;;;;;;;;;;5024737;28;20216;-67
2022/03/02 05:48:02;;;;;;;31.23;16.73;;;;;;;;;;5022785;28;20210;-67
2022/03/02 05:50:27;;;;;;;31.20;17.27;;;;;;;;;;5019915;28;20201;-67
2022/03/02 05:52:53;;;;;;;32.80;17.17;;;;;;;;;;5023792;28;20237;-66
2022/03/02 05:55:18;;;;;;;31.47;17.00;;;;;;;;;;5023119;28;20860;-66
2022/03/02 05:57:44;;;;;;;33.60;17.00;;;;;;;;;;5020486;28;20198;-66
2022/03/02 06:00:10;;;;;;;33.67;17.00;;;;;;;;;;5025502;28;20202;-67
2022/03/02 06:02:35;;;;;;;32.07;15.70;;;;;;;;;;5020998;28;20222;-66
2022/03/02 06:05:00;;;;;;;33.23;16.37;;;;;;;;;;5023832;28;20189;-66
2022/03/02 06:07:26;;;;;;;35.77;18.33;;;;;;;;;;5021854;28;20194;-67
2022/03/02 06:09:51;;;;;;;30.97;16.60;;;;;;;;;;5025164;28;20186;-67
2022/03/02 06:12:17;;;;;;;33.30;16.77;;;;;;;;;;5024112;28;20222;-67
2022/03/02 06:14:43;;;;;;;32.50;16.60;;;;;;;;;;5021881;28;20298;-67
2022/03/02 06:17:09;;;;;;;31.63;16.47;;;;;;;;;;5025020;28;20282;-67
2022/03/02 06:19:35;;;;;;;32.27;16.87;;;;;;;;;;5025010;28;20278;-68
2022/03/02 06:22:04;;;;;;;30.17;14.97;;;;;;;;;;5021175;28;20748;-68
2022/03/02 06:24:31;;;;;;;27.63;15.40;;;;;;;;;;5024018;28;20192;-67
2022/03/02 06:26:57;;;;;;;31.50;15.47;;;;;;;;;;5029588;28;20174;-66
2022/03/02 06:29:22;;;;;;;30.77;16.17;;;;;;;;;;5029078;28;20608;-67
2022/03/02 06:31:47;;;;;;;29.47;15.17;;;;;;;;;;5023058;28;20201;-65
2022/03/02 06:34:13;;;;;;;28.43;15.27;;;;;;;;;;5025751;28;20209;-67
2022/03/02 06:36:38;;;;;;;28.77;15.33;;;;;;;;;;5036386;28;20188;-66
2022/03/02 06:39:04;;;;;;;28.20;15.27;;;;;;;;;;5023119;28;20670;-67
2022/03/02 06:42:12;;;;;;;30.47;15.53;;;;;;;;;;5021086;28;20254;-67
2022/03/02 06:44:48;;;;;;;29.77;15.90;;;;;;;;;;5027673;28;20200;-66
2022/03/02 06:47:17;;;;;;;34.73;16.27;;;;;;;;;;5029674;28;20220;-67
2022/03/02 06:50:05;;;;;;;27.27;15.00;;;;;;;;;;5028344;28;20178;-67
2022/03/02 06:52:36;;;;;;;27.10;14.97;;;;;;;;;;5022490;28;20202;-67
2022/03/02 06:55:06;;;;;;;28.53;15.13;;;;;;;;;;5032290;28;20246;-67
2022/03/02 06:57:32;;;;;;;30.80;15.33;;;;;;;;;;5024068;28;20236;-67
2022/03/02 07:00:16;;;;;;;31.10;15.53;;;;;;;;;;5031481;28;20304;-66
2022/03/02 07:02:51;;;;;;;32.33;15.10;;;;;;;;;;5023391;28;20518;-66
2022/03/02 07:05:18;;;;;;;28.33;15.20;;;;;;;;;;5020167;28;20231;-66
2022/03/02 07:07:45;;;;;;;25.93;14.30;;;;;;;;;;5022402;28;20184;-66
2022/03/02 07:10:11;;;;;;;28.50;14.23;;;;;;;;;;5019478;28;20259;-66
2022/03/02 07:12:37;;;;;;;25.93;14.80;;;;;;;;;;5018678;28;20717;-66
2022/03/02 07:15:04;;;;;;;24.33;14.07;;;;;;;;;;5027734;28;20193;-66
2022/03/02 07:17:32;;;;;;;28.53;13.60;;;;;;;;;;5021022;28;20535;-66
2022/03/02 07:20:01;;;;;;;26.83;13.47;;;;;;;;;;5015506;28;20189;-66
2022/03/02 07:22:32;;;;;;;25.53;13.87;;;;;;;;;;5028478;28;20538;-66
2022/03/02 07:25:20;;;;;;;29.13;13.57;;;;;;;;;;5018239;28;20194;-66
2022/03/02 07:27:46;;;;;;;26.77;13.50;;;;;;;;;;5021209;28;20478;-66
2022/03/02 07:30:11;;;;;;;21.97;12.63;;;;;;;;;;5017252;28;20251;-66
2022/03/02 07:32:41;;;;;;;24.33;13.10;;;;;;;;;;5023891;28;20202;-66
2022/03/02 07:35:07;;;;;;;23.83;13.13;;;;;;;;;;5020271;28;20630;-66
2022/03/02 07:37:34;;;;;;;27.07;13.10;;;;;;;;;;5032913;28;20240;-67
2022/03/02 07:40:00;;;;;;;23.50;12.47;;;;;;;;;;5025441;28;20525;-66
2022/03/02 07:42:25;;;;;;;25.00;13.20;;;;;;;;;;5032355;28;20265;-67
2022/03/02 07:44:52;;;;;;;24.60;12.87;;;;;;;;;;5025283;28;21053;-67
2022/03/02 07:47:18;;;;;;;25.53;12.20;;;;;;;;;;5029475;28;20645;-67
2022/03/02 07:49:45;;;;;;;23.43;12.57;;;;;;;;;;5027704;28;20689;-67
2022/03/02 07:52:13;;;;;;;25.63;12.20;;;;;;;;;;5031698;28;20649;-67
2022/03/02 07:54:40;;;;;;;23.60;11.93;;;;;;;;;;5024268;28;20194;-67
2022/03/02 07:57:11;;;;;;;18.17;10.57;;;;;;;;;;5028176;28;20174;-67
2022/03/02 07:59:42;;;;;;;25.20;11.37;;;;;;;;;;5025865;28;20197;-67
2022/03/02 08:02:09;;;;;;;21.67;11.23;;;;;;;;;;5026338;28;20301;-67
2022/03/02 08:04:36;;;;;;;24.70;11.77;;;;;;;;;;5027835;28;20193;-67
2022/03/02 08:07:02;;;;;;;22.13;12.03;;;;;;;;;;5025507;28;20190;-67
2022/03/02 08:09:27;;;;;;;21.87;11.93;;;;;;;;;;5024142;28;20186;-67
2022/03/02 08:11:53;;;;;;;22.10;11.57;;;;;;;;;;5030332;28;20656;-67
2022/03/02 08:14:19;;;;;;;24.83;12.33;;;;;;;;;;5025369;28;20206;-66
2022/03/02 08:16:45;;;;;;;25.93;12.13;;;;;;;;;;5030542;28;20651;-67
2022/03/02 08:19:11;;;;;;;23.87;12.47;;;;;;;;;;5022601;28;20784;-67
2022/03/02 08:21:42;;;;;;;24.13;12.30;;;;;;;;;;5034837;28;20194;-67
2022/03/02 08:24:12;;;;;;;24.07;12.53;;;;;;;;;;5026682;28;20182;-67
2022/03/02 08:26:39;;;;;;;23.13;12.13;;;;;;;;;;5028724;28;20191;-67
2022/03/02 08:29:07;;;;;;;25.07;11.47;;;;;;;;;;5023563;28;20243;-67
2022/03/02 08:31:35;;;;;;;20.90;10.87;;;;;;;;;;5026269;28;20709;-67
2022/03/02 08:34:03;;;;;;;20.93;10.80;;;;;;;;;;5020283;28;20300;-66
2022/03/02 08:36:33;;;;;;;19.87;11.33;;;;;;;;;;5029310;28;20273;-66
2022/03/02 08:39:00;;;;;;;21.67;12.17;;;;;;;;;;5022410;28;20529;-66
2022/03/02 08:41:26;;;;;;;22.77;11.47;;;;;;;;;;5024937;28;20182;-66
2022/03/02 08:43:51;;;;;;;22.30;11.47;;;;;;;;;;5026401;28;20209;-66
2022/03/02 08:46:16;;;;;;;24.63;11.73;;;;;;;;;;5019870;28;20654;-67
2022/03/02 08:48:42;;;;;;;21.10;10.83;;;;;;;;;;5027908;28;20681;-67
2022/03/02 08:51:08;;;;;;;20.90;10.87;;;;;;;;;;5022947;28;20190;-67
2022/03/02 08:53:33;;;;;;;18.83;10.63;;;;;;;;;;5023493;28;20209;-67
2022/03/02 08:56:03;;;;;;;23.87;11.03;;;;;;;;;;5022236;28;20197;-66
2022/03/02 08:58:29;;;;;;;20.40;10.93;;;;;;;;;;5023718;28;20193;-66
2022/03/02 09:00:58;;;;;;;22.83;10.57;;;;;;;;;;5023919;28;20193;-67
2022/03/02 09:03:25;;;;;;;21.53;10.97;;;;;;;;;;5025581;28;20198;-66
2022/03/02 09:05:51;;;;;;;18.87;9.93;;;;;;;;;;5021689;28;20190;-66
2022/03/02 09:08:17;;;;;;;26.37;10.30;;;;;;;;;;5026377;28;20182;-66
2022/03/02 09:10:43;;;;;;;18.13;9.33;;;;;;;;;;5023406;28;20654;-66
2022/03/02 09:13:12;;;;;;;18.57;9.93;;;;;;;;;;5034623;28;20201;-67
2022/03/02 09:15:39;;;;;;;20.97;10.77;;;;;;;;;;5022202;28;20328;-66
2022/03/02 09:18:05;;;;;;;20.53;10.47;;;;;;;;;;5043517;28;20181;-66
2022/03/02 09:20:30;;;;;;;17.57;10.20;;;;;;;;;;5023610;28;20578;-66
2022/03/02 09:22:56;;;;;;;16.77;9.57;;;;;;;;;;5024764;28;20276;-66
2022/03/02 09:25:24;;;;;;;19.17;10.03;;;;;;;;;;5025481;28;20186;-66
2022/03/02 09:27:51;;;;;;;18.20;10.50;;;;;;;;;;5028932;28;20551;-66
2022/03/02 09:30:16;;;;;;;20.10;10.53;;;;;;;;;;5020520;28;20225;-66
2022/03/02 09:32:42;;;;;;;19.57;9.80;;;;;;;;;;5036775;28;20229;-66
2022/03/02 09:35:14;;;;;;;17.20;9.87;;;;;;;;;;5032478;28;20194;-66
2022/03/02 09:37:42;;;;;;;22.23;11.00;;;;;;;;;;5035334;28;20189;-66
2022/03/02 09:40:19;;;;;;;20.07;10.70;;;;;;;;;;5032145;28;20446;-66
2022/03/02 09:42:53;;;;;;;21.17;10.13;;;;;;;;;;5028544;28;20190;-66
2022/03/02 09:45:20;;;;;;;19.37;10.93;;;;;;;;;;5031644;28;20174;-66
2022/03/02 09:47:52;;;;;;;19.87;10.43;;;;;;;;;;5028628;28;20182;-66
2022/03/02 09:50:19;;;;;;;17.73;9.73;;;;;;;;;;5032098;28;20178;-66
2022/03/02 09:52:46;;;;;;;21.43;10.43;;;;;;;;;;5029405;28;20249;-66
2022/03/02 09:55:17;;;;;;;22.37;10.77;;;;;;;;;;5030097;28;20196;-66
2022/03/02 09:57:47;;;;;;;19.50;10.47;;;;;;;;;;5027379;28;20718;-66
2022/03/02 10:00:18;;;;;;;21.30;10.63;;;;;;;;;;5036151;28;20196;-68
2022/03/02 10:02:47;;;;;;;21.53;10.60;;;;;;;;;;5024534;28;20226;-66
2022/03/02 10:05:16;;;;;;;22.60;10.90;;;;;;;;;;5038981;28;20280;-67
2022/03/02 10:07:45;;;;;;;20.10;10.33;;;;;;;;;;5025798;28;20197;-66
2022/03/02 10:10:22;;;;;;;21.83;10.53;;;;;;;;;;5039286;28;20183;-66
2022/03/02 10:12:53;;;;;;;21.20;10.80;;;;;;;;;;5030068;28;20354;-67
2022/03/02 10:15:19;;;;;;;20.97;10.13;;;;;;;;;;5029277;28;20202;-66
2022/03/02 10:17:48;;;;;;;23.90;10.83;;;;;;;;;;5031566;28;20177;-66
2022/03/02 10:20:17;;;;;;;17.92;9.95;;;;;;;;;;5032650;28;20642;-67
2022/03/02 10:23:01;;;;;;;20.40;10.97;;;;;;;;;;5031585;28;20185;-66
2022/03/02 10:25:43;;;;;;;17.67;10.53;;;;;;;;;;5033924;28;20562;-66
2022/03/02 10:28:15;;;;;;;22.33;10.23;;;;;;;;;;5033900;28;20185;-66
2022/03/02 10:30:42;;;;;;;17.97;10.40;;;;;;;;;;5026555;28;20619;-67
2022/03/02 10:33:18;;;;;;;19.77;10.80;;;;;;;;;;5032193;28;20296;-66
2022/03/02 10:35:51;;;;;;;22.33;11.20;;;;;;;;;;5026641;28;20548;-67
2022/03/02 10:38:27;;;;;;;21.13;10.70;;;;;;;;;;5041328;28;20273;-67
2022/03/02 10:40:56;;;;;;;19.55;9.95;;;;;;;;;;5028799;28;20185;-67
2022/03/02 10:43:27;;;;;;;17.67;9.75;;;;;;;;;;5039867;28;20177;-67
2022/03/02 10:45:52;;;;;;;16.27;8.98;;;;;;;;;;5027033;28;20669;-65
2022/03/02 10:48:46;;;;;;;18.17;9.82;;;;;;;;;;5023934;28;20192;-66
2022/03/02 10:51:13;;;;;;;16.73;9.57;;;;;;;;;;5028487;28;20181;-66
2022/03/02 10:53:40;;;;;;;16.38;8.30;;;;;;;;;;5032216;28;20279;-66
2022/03/02 10:56:08;;;;;;;19.75;9.75;;;;;;;;;;5024665;28;20805;-66
2022/03/02 10:58:34;;;;;;;17.88;9.07;;;;;;;;;;5023112;28;20198;-66
2022/03/02 11:01:00;;;;;;;16.52;8.82;;;;;;;;;;5037853;28;20181;-66
2022/03/02 11:03:28;;;;;;;15.43;8.68;;;;;;;;;;5031457;28;20182;-66
2022/03/02 11:05:59;;;;;;;15.70;8.63;;;;;;;;;;5035284;28;20197;-66
2022/03/02 11:08:25;;;;;;;15.93;8.27;;;;;;;;;;5026198;28;20198;-66
2022/03/02 11:10:50;;;;;;;17.58;8.75;;;;;;;;;;5032617;28;20193;-67
2022/03/02 11:13:16;;;;;;;13.65;8.13;;;;;;;;;;5023215;28;20602;-65
2022/03/02 11:15:54;;;;;;;14.82;8.48;;;;;;;;;;5028790;28;20190;-66
2022/03/02 11:18:40;;;;;;;15.85;9.32;;;;;;;;;;5031399;28;20185;-67
2022/03/02 11:21:11;;;;;;;13.98;8.10;;;;;;;;;;5030257;28;20198;-67
2022/03/02 11:23:52;;;;;;;18.73;8.77;;;;;;;;;;5028122;28;20555;-67
2022/03/02 11:26:24;;;;;;;18.50;9.10;;;;;;;;;;5026637;28;20224;-68
2022/03/02 11:28:52;;;;;;;15.20;8.73;;;;;;;;;;5033536;28;20178;-67
2022/03/02 11:31:24;;;;;;;14.30;8.45;;;;;;;;;;5025516;28;20220;-67
2022/03/02 11:33:51;;;;;;;14.20;8.68;;;;;;;;;;5035542;28;20457;-65
2022/03/02 11:36:18;;;;;;;14.50;8.43;;;;;;;;;;5027300;28;20284;-67
2022/03/02 11:38:46;;;;;;;14.50;8.13;;;;;;;;;;5032315;28;20185;-67
2022/03/02 11:41:13;;;;;;;14.40;7.88;;;;;;;;;;5025941;28;20243;-66
2022/03/02 11:43:41;;;;;;;12.32;8.05;;;;;;;;;;5031316;28;20268;-66
2022/03/02 11:46:09;;;;;;;13.15;8.15;;;;;;;;;;5030330;28;20182;-67
2022/03/02 11:48:42;;;;;;;13.23;8.43;;;;;;;;;;5035098;28;20194;-66
2022/03/02 11:51:16;;;;;;;14.32;7.85;;;;;;;;;;5038074;28;20181;-67
2022/03/02 11:53:46;;;;;;;16.38;8.20;;;;;;;;;;5030941;28;20212;-67
2022/03/02 11:56:16;;;;;;;13.98;7.85;;;;;;;;;;5038311;28;20311;-66
2022/03/02 11:59:01;;;;;;;13.32;7.93;;;;;;;;;;5030454;28;20194;-67
2022/03/02 12:01:44;;;;;;;15.65;8.70;;;;;;;;;;5038203;28;20550;-67
2022/03/02 12:04:14;;;;;;;14.65;7.50;;;;;;;;;;5030938;28;20637;-66
2022/03/02 12:06:46;;;;;;;14.18;7.60;;;;;;;;;;5037266;28;20198;-66
2022/03/02 12:09:24;;;;;;;15.00;8.20;;;;;;;;;;5030775;28;20238;-66
2022/03/02 12:11:49;;;;;;;14.63;7.68;;;;;;;;;;5035683;28;20235;-66
2022/03/02 12:14:15;;;;;;;14.35;6.90;;;;;;;;;;5030574;28;20213;-66
2022/03/02 12:16:43;;;;;;;10.68;6.68;;;;;;;;;;5032663;28;20568;-67
2022/03/02 12:19:26;;;;;;;12.88;6.97;;;;;;;;;;5039530;28;20181;-67
2022/03/02 12:22:03;;;;;;;12.48;7.07;;;;;;;;;;5029649;28;20185;-67
2022/03/02 12:24:34;;;;;;;11.55;6.70;;;;;;;;;;5035357;28;20201;-68
2022/03/02 12:27:07;;;;;;;13.13;6.75;;;;;;;;;;5035445;28;20256;-67
2022/03/02 12:29:35;;;;;;;13.40;7.53;;;;;;;;;;5028366;28;20269;-67
2022/03/02 12:32:07;;;;;;;10.52;6.55;;;;;;;;;;5034998;28;20201;-67
2022/03/02 12:34:39;;;;;;;15.00;7.70;;;;;;;;;;5027059;28;20670;-67
2022/03/02 12:37:05;;;;;;;14.95;7.65;;;;;;;;;;5038731;28;20194;-67
2022/03/02 12:39:31;;;;;;;12.23;7.20;;;;;;;;;;5021667;28;20190;-67
2022/03/02 12:41:57;;;;;;;14.15;7.75;;;;;;;;;;5039777;28;20494;-67
2022/03/02 12:44:23;;;;;;;14.23;8.00;;;;;;;;;;5032602;28;20196;-67
2022/03/02 12:46:53;;;;;;;12.95;7.70;;;;;;;;;;5037057;28;20530;-67
2022/03/02 12:49:25;;;;;;;13.82;7.47;;;;;;;;;;5027464;28;20232;-67
2022/03/02 12:51:54;;;;;;;12.55;7.10;;;;;;;;;;5024756;28;20656;-67
2022/03/02 12:54:20;;;;;;;11.73;6.75;;;;;;;;;;5026378;28;20256;-67
2022/03/02 12:56:45;;;;;;;12.88;6.35;;;;;;;;;;5028231;28;20194;-67
2022/03/02 12:59:12;;;;;;;12.65;7.03;;;;;;;;;;5028339;28;20186;-67
2022/03/02 13:01:37;;;;;;;11.90;6.85;;;;;;;;;;5028597;28;20238;-67
2022/03/02 13:04:05;;;;;;;10.93;6.65;;;;;;;;;;5028908;28;20170;-67
2022/03/02 13:06:34;;;;;;;11.35;6.28;;;;;;;;;;5026954;28;20197;-67
2022/03/02 13:09:06;;;;;;;11.77;7.25;;;;;;;;;;5024103;28;20250;-67
2022/03/02 13:11:32;;;;;;;11.02;6.55;;;;;;;;;;5023308;28;20194;-67
2022/03/02 13:13:58;;;;;;;12.25;6.75;;;;;;;;;;5033571;28;20288;-67
2022/03/02 13:16:28;;;;;;;10.48;7.00;;;;;;;;;;5026252;28;20183;-67
2022/03/02 13:18:57;;;;;;;10.75;6.35;;;;;;;;;;5039276;28;20278;-67
2022/03/02 13:21:25;;;;;;;10.77;5.65;;;;;;;;;;5032037;28;20170;-67
2022/03/02 13:24:21;;;;;;;9.98;5.53;;;;;;;;;;5039228;28;20182;-67
2022/03/02 13:27:05;;;;;;;10.52;5.90;;;;;;;;;;5032904;28;20197;-67
2022/03/02 13:29:49;;;;;;;10.55;6.53;;;;;;;;;;5031488;28;20598;-67
2022/03/02 13:32:15;;;;;;;10.15;6.25;;;;;;;;;;5034217;28;20388;-68
2022/03/02 13:35:05;;;;;;;10.40;5.72;;;;;;;;;;5029092;28;20289;-66
2022/03/02 13:37:55;;;;;;;10.65;5.68;;;;;;;;;;5037640;28;20209;-66
2022/03/02 13:40:32;;;;;;;11.63;5.95;;;;;;;;;;5029655;28;20197;-66
2022/03/02 13:43:10;;;;;;;12.90;6.80;;;;;;;;;;5037233;28;20190;-67
2022/03/02 13:45:38;;;;;;;14.38;7.32;;;;;;;;;;5028081;28;20670;-67
2022/03/02 13:48:21;;;;;;;10.60;6.38;;;;;;;;;;5021965;28;20594;-67
2022/03/02 13:50:58;;;;;;;11.38;6.13;;;;;;;;;;5036862;28;20193;-67
2022/03/02 13:53:35;;;;;;;9.43;6.13;;;;;;;;;;5028743;28;20206;-67
2022/03/02 13:56:18;;;;;;;9.25;5.85;;;;;;;;;;5038649;28;20278;-67
2022/03/02 13:58:50;;;;;;;9.23;5.93;;;;;;;;;;5033346;28;20220;-67
2022/03/02 14:01:24;;;;;;;12.55;6.25;;;;;;;;;;5034174;28;20317;-67
2022/03/02 14:04:12;;;;;;;11.57;6.10;;;;;;;;;;5031283;28;20648;-68
2022/03/02 14:06:41;;;;;;;10.98;6.55;;;;;;;;;;5031231;28;20219;-67
2022/03/02 14:09:09;;;;;;;11.52;6.50;;;;;;;;;;5037468;28;20257;-68
2022/03/02 14:11:47;;;;;;;10.75;6.63;;;;;;;;;;5026372;28;20194;-68
2022/03/02 14:14:32;;;;;;;13.98;6.55;;;;;;;;;;5040593;28;20193;-67
2022/03/02 14:17:07;;;;;;;12.35;6.60;;;;;;;;;;5028069;28;20665;-67
2022/03/02 14:19:40;;;;;;;11.50;6.03;;;;;;;;;;5038419;28;20186;-67
2022/03/02 14:22:14;;;;;;;11.30;6.05;;;;;;;;;;5029769;28;20208;-67
2022/03/02 14:24:42;;;;;;;9.88;5.28;;;;;;;;;;5038824;28;20368;-67
2022/03/02 14:27:14;;;;;;;11.15;6.30;;;;;;;;;;5035213;28;20664;-67
2022/03/02 14:29:49;;;;;;;11.50;5.70;;;;;;;;;;5031172;28;20178;-67
2022/03/02 14:32:14;;;;;;;10.93;5.50;;;;;;;;;;5033520;28;20205;-67